sensor_id;sensor_type;location;lat;lon;timestamp;P1;durP1;ratioP1;P2;durP2;ratioP2
72676;SDS011;60755;51.374;10.662;2023-07-08T00:00:17;4.50;;;2.47;;
72676;SDS011;60755;51.374;10.662;2023-07-08T00:02:46;3.08;;;2.63;;
72676;SDS011;60755;51.374;10.662;2023-07-08T00:05:14;3.67;;;2.40;;
72676;SDS011;60755;51.374;10.662;2023-07-08T00:07:43;2.50;;;2.40;;
72676;SDS011;60755;51.374;10.662;2023-07-08T00:10:12;4.78;;;2.65;;
72676;SDS011;60755;51.374;10.662;2023-07-08T00:12:40;2.85;;;2.65;;
72676;SDS011;60755;51.374;10.662;2023-07-08T00:15:09;2.78;;;2.67;;
72676;SDS011;60755;51.374;10.662;2023-07-08T00:17:36;3.22;;;2.92;;
72676;SDS011;60755;51.374;10.662;2023-07-08T00:20:13;3.95;;;2.80;;
72676;SDS011;60755;51.374;10.662;2023-07-08T00:22:43;3.20;;;2.70;;
72676;SDS011;60755;51.374;10.662;2023-07-08T00:25:12;3.83;;;3.05;;
72676;SDS011;60755;51.374;10.662;2023-07-08T00:27:39;2.85;;;2.70;;
72676;SDS011;60755;51.374;10.662;2023-07-08T00:30:19;2.85;;;2.60;;
72676;SDS011;60755;51.374;10.662;2023-07-08T00:32:48;3.45;;;3.15;;
72676;SDS011;60755;51.374;10.662;2023-07-08T00:35:22;3.55;;;3.00;;
72676;SDS011;60755;51.374;10.662;2023-07-08T00:37:54;3.90;;;3.03;;
72676;SDS011;60755;51.374;10.662;2023-07-08T00:40:27;4.57;;;2.78;;
72676;SDS011;60755;51.374;10.662;2023-07-08T00:42:55;3.50;;;3.20;;
72676;SDS011;60755;51.374;10.662;2023-07-08T00:45:29;4.95;;;2.92;;
72676;SDS011;60755;51.374;10.662;2023-07-08T00:48:05;3.90;;;3.55;;
72676;SDS011;60755;51.374;10.662;2023-07-08T00:50:36;4.55;;;3.22;;
72676;SDS011;60755;51.374;10.662;2023-07-08T00:53:22;3.30;;;3.00;;
72676;SDS011;60755;51.374;10.662;2023-07-08T00:55:52;3.55;;;3.15;;
72676;SDS011;60755;51.374;10.662;2023-07-08T00:58:22;5.07;;;3.25;;
72676;SDS011;60755;51.374;10.662;2023-07-08T01:00:52;6.50;;;2.88;;
72676;SDS011;60755;51.374;10.662;2023-07-08T01:03:22;3.25;;;3.05;;
72676;SDS011;60755;51.374;10.662;2023-07-08T01:05:53;3.20;;;3.00;;
72676;SDS011;60755;51.374;10.662;2023-07-08T01:08:25;3.35;;;3.00;;
72676;SDS011;60755;51.374;10.662;2023-07-08T01:10:55;3.63;;;3.33;;
72676;SDS011;60755;51.374;10.662;2023-07-08T01:13:28;3.00;;;2.70;;
72676;SDS011;60755;51.374;10.662;2023-07-08T01:16:03;3.40;;;3.20;;
72676;SDS011;60755;51.374;10.662;2023-07-08T01:18:30;3.15;;;2.97;;
72676;SDS011;60755;51.374;10.662;2023-07-08T01:21:01;3.08;;;2.92;;
72676;SDS011;60755;51.374;10.662;2023-07-08T01:23:35;3.10;;;2.90;;
72676;SDS011;60755;51.374;10.662;2023-07-08T01:26:03;3.33;;;2.95;;
72676;SDS011;60755;51.374;10.662;2023-07-08T01:28:30;3.30;;;3.10;;
72676;SDS011;60755;51.374;10.662;2023-07-08T01:30:57;3.30;;;3.00;;
72676;SDS011;60755;51.374;10.662;2023-07-08T01:33:25;3.50;;;3.28;;
72676;SDS011;60755;51.374;10.662;2023-07-08T01:35:54;4.28;;;3.10;;
72676;SDS011;60755;51.374;10.662;2023-07-08T01:38:22;3.72;;;3.08;;
72676;SDS011;60755;51.374;10.662;2023-07-08T01:40:54;3.35;;;3.05;;
72676;SDS011;60755;51.374;10.662;2023-07-08T01:43:22;3.47;;;3.17;;
72676;SDS011;60755;51.374;10.662;2023-07-08T01:45:49;3.53;;;3.33;;
72676;SDS011;60755;51.374;10.662;2023-07-08T01:48:19;3.70;;;3.33;;
72676;SDS011;60755;51.374;10.662;2023-07-08T01:50:50;3.83;;;3.40;;
72676;SDS011;60755;51.374;10.662;2023-07-08T01:53:26;3.22;;;3.03;;
72676;SDS011;60755;51.374;10.662;2023-07-08T01:55:57;3.38;;;3.25;;
72676;SDS011;60755;51.374;10.662;2023-07-08T01:58:25;3.50;;;3.25;;
72676;SDS011;60755;51.374;10.662;2023-07-08T02:00:53;4.40;;;3.20;;
72676;SDS011;60755;51.374;10.662;2023-07-08T02:03:22;3.40;;;3.20;;
72676;SDS011;60755;51.374;10.662;2023-07-08T02:05:49;3.45;;;3.20;;
72676;SDS011;60755;51.374;10.662;2023-07-08T02:08:16;4.53;;;3.72;;
72676;SDS011;60755;51.374;10.662;2023-07-08T02:10:46;3.70;;;3.40;;
72676;SDS011;60755;51.374;10.662;2023-07-08T02:13:17;3.60;;;3.35;;
72676;SDS011;60755;51.374;10.662;2023-07-08T02:15:44;3.55;;;3.35;;
72676;SDS011;60755;51.374;10.662;2023-07-08T02:18:11;3.75;;;3.45;;
72676;SDS011;60755;51.374;10.662;2023-07-08T02:20:38;3.47;;;3.28;;
72676;SDS011;60755;51.374;10.662;2023-07-08T02:23:05;3.63;;;3.35;;
72676;SDS011;60755;51.374;10.662;2023-07-08T02:25:32;4.57;;;3.60;;
72676;SDS011;60755;51.374;10.662;2023-07-08T02:27:59;3.92;;;3.63;;
72676;SDS011;60755;51.374;10.662;2023-07-08T02:30:28;4.53;;;3.53;;
72676;SDS011;60755;51.374;10.662;2023-07-08T02:32:55;3.83;;;3.53;;
72676;SDS011;60755;51.374;10.662;2023-07-08T02:35:23;3.92;;;3.60;;
72676;SDS011;60755;51.374;10.662;2023-07-08T02:37:52;8.35;;;3.47;;
72676;SDS011;60755;51.374;10.662;2023-07-08T02:40:19;3.90;;;3.60;;
72676;SDS011;60755;51.374;10.662;2023-07-08T02:42:46;4.00;;;3.60;;
72676;SDS011;60755;51.374;10.662;2023-07-08T02:45:13;6.05;;;3.50;;
72676;SDS011;60755;51.374;10.662;2023-07-08T02:47:42;4.30;;;3.72;;
72676;SDS011;60755;51.374;10.662;2023-07-08T02:50:10;4.57;;;4.18;;
72676;SDS011;60755;51.374;10.662;2023-07-08T02:52:38;8.57;;;3.97;;
72676;SDS011;60755;51.374;10.662;2023-07-08T02:55:05;5.28;;;3.53;;
72676;SDS011;60755;51.374;10.662;2023-07-08T02:57:33;3.97;;;3.67;;
72676;SDS011;60755;51.374;10.662;2023-07-08T03:00:00;5.23;;;3.97;;
72676;SDS011;60755;51.374;10.662;2023-07-08T03:02:29;4.30;;;3.90;;
72676;SDS011;60755;51.374;10.662;2023-07-08T03:04:58;3.70;;;3.50;;
72676;SDS011;60755;51.374;10.662;2023-07-08T03:07:26;3.90;;;3.50;;
72676;SDS011;60755;51.374;10.662;2023-07-08T03:09:53;4.18;;;3.95;;
72676;SDS011;60755;51.374;10.662;2023-07-08T03:12:20;3.78;;;3.47;;
72676;SDS011;60755;51.374;10.662;2023-07-08T03:14:47;4.03;;;3.72;;
72676;SDS011;60755;51.374;10.662;2023-07-08T03:17:15;4.32;;;3.70;;
72676;SDS011;60755;51.374;10.662;2023-07-08T03:19:43;4.07;;;3.78;;
72676;SDS011;60755;51.374;10.662;2023-07-08T03:22:11;4.38;;;4.03;;
72676;SDS011;60755;51.374;10.662;2023-07-08T03:24:39;3.93;;;3.70;;
72676;SDS011;60755;51.374;10.662;2023-07-08T03:27:15;3.33;;;3.23;;
72676;SDS011;60755;51.374;10.662;2023-07-08T03:29:43;3.83;;;3.63;;
72676;SDS011;60755;51.374;10.662;2023-07-08T03:32:10;4.85;;;4.00;;
72676;SDS011;60755;51.374;10.662;2023-07-08T03:34:39;3.85;;;3.60;;
72676;SDS011;60755;51.374;10.662;2023-07-08T03:37:08;5.40;;;3.47;;
72676;SDS011;60755;51.374;10.662;2023-07-08T03:39:36;5.35;;;3.67;;
72676;SDS011;60755;51.374;10.662;2023-07-08T03:42:04;4.82;;;3.63;;
72676;SDS011;60755;51.374;10.662;2023-07-08T03:44:31;4.15;;;3.58;;
72676;SDS011;60755;51.374;10.662;2023-07-08T03:46:58;4.30;;;3.15;;
72676;SDS011;60755;51.374;10.662;2023-07-08T03:49:25;4.80;;;3.60;;
72676;SDS011;60755;51.374;10.662;2023-07-08T03:51:54;3.65;;;3.35;;
72676;SDS011;60755;51.374;10.662;2023-07-08T03:54:22;4.05;;;3.40;;
72676;SDS011;60755;51.374;10.662;2023-07-08T03:56:54;3.53;;;3.03;;
72676;SDS011;60755;51.374;10.662;2023-07-08T03:59:23;4.32;;;3.10;;
72676;SDS011;60755;51.374;10.662;2023-07-08T04:01:53;3.75;;;3.40;;
72676;SDS011;60755;51.374;10.662;2023-07-08T04:04:20;3.38;;;3.15;;
72676;SDS011;60755;51.374;10.662;2023-07-08T04:06:47;3.40;;;3.30;;
72676;SDS011;60755;51.374;10.662;2023-07-08T04:09:15;3.17;;;3.08;;
72676;SDS011;60755;51.374;10.662;2023-07-08T04:11:42;3.30;;;3.08;;
72676;SDS011;60755;51.374;10.662;2023-07-08T04:14:11;3.42;;;3.22;;
72676;SDS011;60755;51.374;10.662;2023-07-08T04:16:43;3.50;;;3.30;;
72676;SDS011;60755;51.374;10.662;2023-07-08T04:19:13;3.20;;;3.10;;
72676;SDS011;60755;51.374;10.662;2023-07-08T04:21:42;3.33;;;3.13;;
72676;SDS011;60755;51.374;10.662;2023-07-08T04:24:10;3.00;;;2.90;;
72676;SDS011;60755;51.374;10.662;2023-07-08T04:26:39;3.45;;;3.13;;
72676;SDS011;60755;51.374;10.662;2023-07-08T04:29:12;3.13;;;2.88;;
72676;SDS011;60755;51.374;10.662;2023-07-08T04:31:40;4.13;;;3.22;;
72676;SDS011;60755;51.374;10.662;2023-07-08T04:34:08;4.35;;;3.00;;
72676;SDS011;60755;51.374;10.662;2023-07-08T04:36:35;3.20;;;3.00;;
72676;SDS011;60755;51.374;10.662;2023-07-08T04:39:03;3.08;;;2.92;;
72676;SDS011;60755;51.374;10.662;2023-07-08T04:41:31;3.58;;;3.00;;
72676;SDS011;60755;51.374;10.662;2023-07-08T04:43:58;3.13;;;3.03;;
72676;SDS011;60755;51.374;10.662;2023-07-08T04:46:32;3.53;;;3.30;;
72676;SDS011;60755;51.374;10.662;2023-07-08T04:49:04;3.20;;;3.00;;
72676;SDS011;60755;51.374;10.662;2023-07-08T04:51:32;4.07;;;3.53;;
72676;SDS011;60755;51.374;10.662;2023-07-08T04:53:59;3.67;;;3.13;;
72676;SDS011;60755;51.374;10.662;2023-07-08T04:56:34;2.88;;;2.72;;
72676;SDS011;60755;51.374;10.662;2023-07-08T04:59:03;3.45;;;3.15;;
72676;SDS011;60755;51.374;10.662;2023-07-08T05:01:32;3.42;;;3.22;;
72676;SDS011;60755;51.374;10.662;2023-07-08T05:03:59;3.20;;;3.00;;
72676;SDS011;60755;51.374;10.662;2023-07-08T05:06:27;5.50;;;3.22;;
72676;SDS011;60755;51.374;10.662;2023-07-08T05:08:54;3.60;;;3.30;;
72676;SDS011;60755;51.374;10.662;2023-07-08T05:11:21;3.70;;;3.22;;
72676;SDS011;60755;51.374;10.662;2023-07-08T05:13:48;2.95;;;2.85;;
72676;SDS011;60755;51.374;10.662;2023-07-08T05:16:15;3.25;;;2.95;;
72676;SDS011;60755;51.374;10.662;2023-07-08T05:18:43;3.03;;;2.92;;
72676;SDS011;60755;51.374;10.662;2023-07-08T05:21:11;4.07;;;3.40;;
72676;SDS011;60755;51.374;10.662;2023-07-08T05:23:38;3.35;;;3.15;;
72676;SDS011;60755;51.374;10.662;2023-07-08T05:26:05;4.40;;;4.10;;
72676;SDS011;60755;51.374;10.662;2023-07-08T05:28:33;3.97;;;3.67;;
72676;SDS011;60755;51.374;10.662;2023-07-08T05:31:00;4.57;;;4.28;;
72676;SDS011;60755;51.374;10.662;2023-07-08T05:33:28;9.95;;;8.93;;
72676;SDS011;60755;51.374;10.662;2023-07-08T05:35:57;10.20;;;8.02;;
72676;SDS011;60755;51.374;10.662;2023-07-08T05:38:25;9.52;;;6.20;;
72676;SDS011;60755;51.374;10.662;2023-07-08T05:40:54;6.13;;;3.38;;
72676;SDS011;60755;51.374;10.662;2023-07-08T05:43:22;3.65;;;3.45;;
72676;SDS011;60755;51.374;10.662;2023-07-08T05:45:50;3.28;;;3.10;;
72676;SDS011;60755;51.374;10.662;2023-07-08T05:48:17;4.28;;;3.35;;
72676;SDS011;60755;51.374;10.662;2023-07-08T05:50:44;5.53;;;5.03;;
72676;SDS011;60755;51.374;10.662;2023-07-08T05:53:13;28.67;;;21.65;;
72676;SDS011;60755;51.374;10.662;2023-07-08T05:55:40;42.35;;;30.63;;
72676;SDS011;60755;51.374;10.662;2023-07-08T05:58:07;14.90;;;12.77;;
72676;SDS011;60755;51.374;10.662;2023-07-08T06:00:35;16.48;;;11.30;;
72676;SDS011;60755;51.374;10.662;2023-07-08T06:03:02;4.13;;;3.88;;
72676;SDS011;60755;51.374;10.662;2023-07-08T06:05:29;3.42;;;3.20;;
72676;SDS011;60755;51.374;10.662;2023-07-08T06:07:58;3.30;;;3.15;;
72676;SDS011;60755;51.374;10.662;2023-07-08T06:10:27;3.67;;;3.42;;
72676;SDS011;60755;51.374;10.662;2023-07-08T06:12:54;3.75;;;3.30;;
72676;SDS011;60755;51.374;10.662;2023-07-08T06:15:20;5.32;;;3.83;;
72676;SDS011;60755;51.374;10.662;2023-07-08T06:17:47;3.40;;;3.10;;
72676;SDS011;60755;51.374;10.662;2023-07-08T06:20:14;6.03;;;3.63;;
72676;SDS011;60755;51.374;10.662;2023-07-08T06:22:41;4.35;;;3.13;;
72676;SDS011;60755;51.374;10.662;2023-07-08T06:25:08;4.18;;;3.40;;
72676;SDS011;60755;51.374;10.662;2023-07-08T06:27:37;3.70;;;3.30;;
72676;SDS011;60755;51.374;10.662;2023-07-08T06:30:05;3.28;;;3.17;;
72676;SDS011;60755;51.374;10.662;2023-07-08T06:32:33;3.50;;;3.30;;
72676;SDS011;60755;51.374;10.662;2023-07-08T06:35:00;3.20;;;3.00;;
72676;SDS011;60755;51.374;10.662;2023-07-08T06:37:27;3.20;;;3.00;;
72676;SDS011;60755;51.374;10.662;2023-07-08T06:39:54;3.22;;;3.03;;
72676;SDS011;60755;51.374;10.662;2023-07-08T06:42:21;3.20;;;3.10;;
72676;SDS011;60755;51.374;10.662;2023-07-08T06:45:03;3.65;;;3.40;;
72676;SDS011;60755;51.374;10.662;2023-07-08T06:47:31;3.50;;;3.30;;
72676;SDS011;60755;51.374;10.662;2023-07-08T06:49:58;4.70;;;3.42;;
72676;SDS011;60755;51.374;10.662;2023-07-08T06:52:25;3.95;;;3.60;;
72676;SDS011;60755;51.374;10.662;2023-07-08T06:54:52;5.63;;;3.28;;
72676;SDS011;60755;51.374;10.662;2023-07-08T06:57:19;3.55;;;3.33;;
72676;SDS011;60755;51.374;10.662;2023-07-08T06:59:45;3.67;;;3.47;;
72676;SDS011;60755;51.374;10.662;2023-07-08T07:02:14;3.55;;;3.35;;
72676;SDS011;60755;51.374;10.662;2023-07-08T07:04:42;5.82;;;3.35;;
72676;SDS011;60755;51.374;10.662;2023-07-08T07:07:10;3.83;;;3.00;;
72676;SDS011;60755;51.374;10.662;2023-07-08T07:09:37;3.42;;;2.78;;
72676;SDS011;60755;51.374;10.662;2023-07-08T07:12:05;3.10;;;3.00;;
72676;SDS011;60755;51.374;10.662;2023-07-08T07:14:33;3.58;;;3.38;;
72676;SDS011;60755;51.374;10.662;2023-07-08T07:17:00;3.97;;;3.42;;
72676;SDS011;60755;51.374;10.662;2023-07-08T07:19:28;4.30;;;3.90;;
72676;SDS011;60755;51.374;10.662;2023-07-08T07:21:55;3.35;;;3.25;;
72676;SDS011;60755;51.374;10.662;2023-07-08T07:24:22;3.50;;;3.20;;
72676;SDS011;60755;51.374;10.662;2023-07-08T07:26:49;3.38;;;3.08;;
72676;SDS011;60755;51.374;10.662;2023-07-08T07:29:16;3.47;;;3.20;;
72676;SDS011;60755;51.374;10.662;2023-07-08T07:31:44;3.72;;;3.42;;
72676;SDS011;60755;51.374;10.662;2023-07-08T07:34:13;3.65;;;3.40;;
72676;SDS011;60755;51.374;10.662;2023-07-08T07:36:42;3.42;;;3.22;;
72676;SDS011;60755;51.374;10.662;2023-07-08T07:39:09;3.67;;;3.47;;
72676;SDS011;60755;51.374;10.662;2023-07-08T07:41:36;3.67;;;3.40;;
72676;SDS011;60755;51.374;10.662;2023-07-08T07:44:03;3.85;;;3.65;;
72676;SDS011;60755;51.374;10.662;2023-07-08T07:46:30;3.72;;;3.45;;
72676;SDS011;60755;51.374;10.662;2023-07-08T07:48:57;4.53;;;4.18;;
72676;SDS011;60755;51.374;10.662;2023-07-08T07:51:24;3.95;;;3.70;;
72676;SDS011;60755;51.374;10.662;2023-07-08T07:53:52;3.78;;;3.47;;
72676;SDS011;60755;51.374;10.662;2023-07-08T07:56:19;4.05;;;3.80;;
72676;SDS011;60755;51.374;10.662;2023-07-08T07:58:46;4.13;;;3.70;;
72676;SDS011;60755;51.374;10.662;2023-07-08T08:01:14;4.07;;;3.78;;
72676;SDS011;60755;51.374;10.662;2023-07-08T08:03:41;4.13;;;3.80;;
72676;SDS011;60755;51.374;10.662;2023-07-08T08:06:08;5.32;;;4.70;;
72676;SDS011;60755;51.374;10.662;2023-07-08T08:08:35;4.80;;;3.95;;
72676;SDS011;60755;51.374;10.662;2023-07-08T08:11:03;4.38;;;4.05;;
72676;SDS011;60755;51.374;10.662;2023-07-08T08:13:30;3.80;;;3.60;;
72676;SDS011;60755;51.374;10.662;2023-07-08T08:15:57;4.00;;;3.80;;
72676;SDS011;60755;51.374;10.662;2023-07-08T08:18:25;4.35;;;4.00;;
72676;SDS011;60755;51.374;10.662;2023-07-08T08:20:52;6.10;;;4.15;;
72676;SDS011;60755;51.374;10.662;2023-07-08T08:23:20;4.82;;;4.35;;
72676;SDS011;60755;51.374;10.662;2023-07-08T08:25:47;3.90;;;3.65;;
72676;SDS011;60755;51.374;10.662;2023-07-08T08:28:16;10.00;;;3.80;;
72676;SDS011;60755;51.374;10.662;2023-07-08T08:30:46;4.30;;;4.00;;
72676;SDS011;60755;51.374;10.662;2023-07-08T08:33:13;4.13;;;3.92;;
72676;SDS011;60755;51.374;10.662;2023-07-08T08:35:41;4.35;;;3.95;;
72676;SDS011;60755;51.374;10.662;2023-07-08T08:38:08;4.60;;;4.18;;
72676;SDS011;60755;51.374;10.662;2023-07-08T08:40:35;4.25;;;3.95;;
72676;SDS011;60755;51.374;10.662;2023-07-08T08:43:04;3.90;;;3.70;;
72676;SDS011;60755;51.374;10.662;2023-07-08T08:45:36;4.32;;;4.03;;
72676;SDS011;60755;51.374;10.662;2023-07-08T08:48:11;4.45;;;4.05;;
72676;SDS011;60755;51.374;10.662;2023-07-08T08:50:43;4.60;;;4.30;;
72676;SDS011;60755;51.374;10.662;2023-07-08T08:53:16;4.38;;;3.65;;
72676;SDS011;60755;51.374;10.662;2023-07-08T08:55:46;4.22;;;3.75;;
72676;SDS011;60755;51.374;10.662;2023-07-08T08:58:24;4.10;;;3.80;;
72676;SDS011;60755;51.374;10.662;2023-07-08T09:00:59;4.47;;;4.07;;
72676;SDS011;60755;51.374;10.662;2023-07-08T09:03:33;4.35;;;4.05;;
72676;SDS011;60755;51.374;10.662;2023-07-08T09:06:11;5.72;;;3.92;;
72676;SDS011;60755;51.374;10.662;2023-07-08T09:08:39;3.90;;;3.60;;
72676;SDS011;60755;51.374;10.662;2023-07-08T09:11:14;4.15;;;3.85;;
72676;SDS011;60755;51.374;10.662;2023-07-08T09:13:50;3.92;;;3.63;;
72676;SDS011;60755;51.374;10.662;2023-07-08T09:16:24;3.92;;;3.72;;
72676;SDS011;60755;51.374;10.662;2023-07-08T09:18:58;3.70;;;3.50;;
72676;SDS011;60755;51.374;10.662;2023-07-08T09:21:28;4.00;;;3.70;;
72676;SDS011;60755;51.374;10.662;2023-07-08T09:24:01;3.97;;;3.70;;
72676;SDS011;60755;51.374;10.662;2023-07-08T09:26:42;3.95;;;3.75;;
72676;SDS011;60755;51.374;10.662;2023-07-08T09:29:11;3.90;;;3.60;;
72676;SDS011;60755;51.374;10.662;2023-07-08T09:31:40;4.75;;;4.40;;
72676;SDS011;60755;51.374;10.662;2023-07-08T09:34:09;4.18;;;3.97;;
72676;SDS011;60755;51.374;10.662;2023-07-08T09:36:40;4.60;;;4.22;;
72676;SDS011;60755;51.374;10.662;2023-07-08T09:39:12;3.90;;;3.70;;
72676;SDS011;60755;51.374;10.662;2023-07-08T09:41:41;4.00;;;3.80;;
72676;SDS011;60755;51.374;10.662;2023-07-08T09:44:15;3.72;;;3.55;;
72676;SDS011;60755;51.374;10.662;2023-07-08T09:46:46;3.95;;;3.55;;
72676;SDS011;60755;51.374;10.662;2023-07-08T09:49:17;4.10;;;3.80;;
72676;SDS011;60755;51.374;10.662;2023-07-08T09:51:48;4.35;;;3.95;;
72676;SDS011;60755;51.374;10.662;2023-07-08T09:54:16;3.90;;;3.60;;
72676;SDS011;60755;51.374;10.662;2023-07-08T09:56:55;4.20;;;3.70;;
72676;SDS011;60755;51.374;10.662;2023-07-08T09:59:28;4.20;;;3.90;;
72676;SDS011;60755;51.374;10.662;2023-07-08T10:02:03;4.93;;;4.50;;
72676;SDS011;60755;51.374;10.662;2023-07-08T10:04:52;7.13;;;4.35;;
72676;SDS011;60755;51.374;10.662;2023-07-08T10:07:20;3.80;;;3.60;;
72676;SDS011;60755;51.374;10.662;2023-07-08T10:09:48;4.22;;;3.92;;
72676;SDS011;60755;51.374;10.662;2023-07-08T10:12:19;3.97;;;3.78;;
72676;SDS011;60755;51.374;10.662;2023-07-08T10:14:48;4.40;;;4.00;;
72676;SDS011;60755;51.374;10.662;2023-07-08T10:17:20;3.97;;;3.58;;
72676;SDS011;60755;51.374;10.662;2023-07-08T10:19:48;4.30;;;3.90;;
72676;SDS011;60755;51.374;10.662;2023-07-08T10:22:22;9.60;;;3.88;;
72676;SDS011;60755;51.374;10.662;2023-07-08T10:25:03;11.18;;;4.07;;
72676;SDS011;60755;51.374;10.662;2023-07-08T10:27:39;5.18;;;3.30;;
72676;SDS011;60755;51.374;10.662;2023-07-08T10:30:16;3.92;;;3.70;;
72676;SDS011;60755;51.374;10.662;2023-07-08T10:35:48;4.10;;;3.80;;
72676;SDS011;60755;51.374;10.662;2023-07-08T10:38:31;3.80;;;3.60;;
72676;SDS011;60755;51.374;10.662;2023-07-08T10:41:11;3.25;;;3.15;;
72676;SDS011;60755;51.374;10.662;2023-07-08T10:43:47;3.90;;;3.70;;
72676;SDS011;60755;51.374;10.662;2023-07-08T10:46:24;4.20;;;3.90;;
72676;SDS011;60755;51.374;10.662;2023-07-08T10:49:06;4.40;;;3.83;;
72676;SDS011;60755;51.374;10.662;2023-07-08T10:51:55;5.97;;;3.97;;
72676;SDS011;60755;51.374;10.662;2023-07-08T10:54:50;3.75;;;3.45;;
72676;SDS011;60755;51.374;10.662;2023-07-08T10:57:47;4.00;;;3.70;;
72676;SDS011;60755;51.374;10.662;2023-07-08T11:00:32;8.55;;;6.10;;
72676;SDS011;60755;51.374;10.662;2023-07-08T11:03:14;3.97;;;3.58;;
72676;SDS011;60755;51.374;10.662;2023-07-08T11:05:58;5.40;;;3.72;;
72676;SDS011;60755;51.374;10.662;2023-07-08T11:08:32;4.22;;;3.92;;
72676;SDS011;60755;51.374;10.662;2023-07-08T11:11:05;4.22;;;3.90;;
72676;SDS011;60755;51.374;10.662;2023-07-08T11:13:38;3.80;;;3.60;;
72676;SDS011;60755;51.374;10.662;2023-07-08T11:16:12;3.80;;;3.60;;
72676;SDS011;60755;51.374;10.662;2023-07-08T11:18:47;4.25;;;3.92;;
72676;SDS011;60755;51.374;10.662;2023-07-08T11:21:22;4.03;;;3.83;;
72676;SDS011;60755;51.374;10.662;2023-07-08T11:23:56;4.22;;;3.92;;
72676;SDS011;60755;51.374;10.662;2023-07-08T11:26:28;3.90;;;3.70;;
72676;SDS011;60755;51.374;10.662;2023-07-08T11:28:59;3.78;;;3.58;;
72676;SDS011;60755;51.374;10.662;2023-07-08T11:31:30;4.35;;;3.78;;
72676;SDS011;60755;51.374;10.662;2023-07-08T11:33:59;4.40;;;4.10;;
72676;SDS011;60755;51.374;10.662;2023-07-08T11:36:29;4.57;;;4.20;;
72676;SDS011;60755;51.374;10.662;2023-07-08T11:38:59;4.32;;;3.92;;
72676;SDS011;60755;51.374;10.662;2023-07-08T11:41:30;4.72;;;3.95;;
72676;SDS011;60755;51.374;10.662;2023-07-08T11:43:59;4.32;;;4.03;;
72676;SDS011;60755;51.374;10.662;2023-07-08T11:46:31;4.50;;;4.10;;
72676;SDS011;60755;51.374;10.662;2023-07-08T11:49:01;4.88;;;4.35;;
72676;SDS011;60755;51.374;10.662;2023-07-08T11:51:34;7.00;;;4.20;;
72676;SDS011;60755;51.374;10.662;2023-07-08T11:54:10;4.07;;;3.78;;
72676;SDS011;60755;51.374;10.662;2023-07-08T11:56:49;4.55;;;4.15;;
72676;SDS011;60755;51.374;10.662;2023-07-08T11:59:26;6.75;;;4.30;;
72676;SDS011;60755;51.374;10.662;2023-07-08T12:02:01;4.32;;;3.85;;
72676;SDS011;60755;51.374;10.662;2023-07-08T12:04:30;4.10;;;3.80;;
72676;SDS011;60755;51.374;10.662;2023-07-08T12:07:05;6.18;;;4.20;;
72676;SDS011;60755;51.374;10.662;2023-07-08T12:09:37;4.43;;;3.97;;
72676;SDS011;60755;51.374;10.662;2023-07-08T12:12:13;5.75;;;3.60;;
72676;SDS011;60755;51.374;10.662;2023-07-08T12:14:44;7.03;;;4.03;;
72676;SDS011;60755;51.374;10.662;2023-07-08T12:17:12;4.85;;;4.18;;
72676;SDS011;60755;51.374;10.662;2023-07-08T12:19:41;5.30;;;4.43;;
72676;SDS011;60755;51.374;10.662;2023-07-08T12:22:11;4.53;;;3.72;;
72676;SDS011;60755;51.374;10.662;2023-07-08T12:24:39;4.40;;;4.00;;
72676;SDS011;60755;51.374;10.662;2023-07-08T12:27:10;14.88;;;12.60;;
72676;SDS011;60755;51.374;10.662;2023-07-08T12:29:37;4.70;;;4.30;;
72676;SDS011;60755;51.374;10.662;2023-07-08T12:32:05;4.55;;;4.15;;
72676;SDS011;60755;51.374;10.662;2023-07-08T12:34:36;4.30;;;4.00;;
72676;SDS011;60755;51.374;10.662;2023-07-08T12:37:03;4.13;;;3.83;;
72676;SDS011;60755;51.374;10.662;2023-07-08T12:39:33;4.30;;;3.95;;
72676;SDS011;60755;51.374;10.662;2023-07-08T12:42:01;4.68;;;3.92;;
72676;SDS011;60755;51.374;10.662;2023-07-08T12:44:30;5.22;;;4.07;;
72676;SDS011;60755;51.374;10.662;2023-07-08T12:47:00;3.90;;;3.70;;
72676;SDS011;60755;51.374;10.662;2023-07-08T12:49:28;5.63;;;4.35;;
72676;SDS011;60755;51.374;10.662;2023-07-08T12:51:56;4.07;;;3.78;;
72676;SDS011;60755;51.374;10.662;2023-07-08T12:54:23;4.13;;;3.72;;
72676;SDS011;60755;51.374;10.662;2023-07-08T12:56:53;4.28;;;3.67;;
72676;SDS011;60755;51.374;10.662;2023-07-08T12:59:21;6.18;;;3.90;;
72676;SDS011;60755;51.374;10.662;2023-07-08T13:01:50;4.65;;;4.10;;
72676;SDS011;60755;51.374;10.662;2023-07-08T13:04:19;4.40;;;4.10;;
72676;SDS011;60755;51.374;10.662;2023-07-08T13:06:47;4.18;;;3.78;;
72676;SDS011;60755;51.374;10.662;2023-07-08T13:09:23;4.72;;;4.32;;
72676;SDS011;60755;51.374;10.662;2023-07-08T13:11:59;4.50;;;4.10;;
72676;SDS011;60755;51.374;10.662;2023-07-08T13:14:31;6.28;;;4.30;;
72676;SDS011;60755;51.374;10.662;2023-07-08T13:17:00;3.95;;;3.70;;
72676;SDS011;60755;51.374;10.662;2023-07-08T13:19:28;4.35;;;4.13;;
72676;SDS011;60755;51.374;10.662;2023-07-08T13:21:55;5.15;;;4.20;;
72676;SDS011;60755;51.374;10.662;2023-07-08T13:24:24;5.05;;;4.10;;
72676;SDS011;60755;51.374;10.662;2023-07-08T13:26:56;5.95;;;4.22;;
72676;SDS011;60755;51.374;10.662;2023-07-08T13:29:25;4.25;;;3.85;;
72676;SDS011;60755;51.374;10.662;2023-07-08T13:31:56;4.18;;;3.88;;
72676;SDS011;60755;51.374;10.662;2023-07-08T13:34:31;4.25;;;3.92;;
72676;SDS011;60755;51.374;10.662;2023-07-08T13:36:59;4.68;;;4.28;;
72676;SDS011;60755;51.374;10.662;2023-07-08T13:39:27;4.70;;;4.30;;
72676;SDS011;60755;51.374;10.662;2023-07-08T13:41:58;5.22;;;4.72;;
72676;SDS011;60755;51.374;10.662;2023-07-08T13:44:28;4.55;;;4.00;;
72676;SDS011;60755;51.374;10.662;2023-07-08T13:46:56;5.10;;;4.03;;
72676;SDS011;60755;51.374;10.662;2023-07-08T13:49:26;4.20;;;3.90;;
72676;SDS011;60755;51.374;10.662;2023-07-08T13:52:04;4.95;;;4.32;;
72676;SDS011;60755;51.374;10.662;2023-07-08T13:54:33;4.28;;;3.92;;
72676;SDS011;60755;51.374;10.662;2023-07-08T13:57:08;4.15;;;3.90;;
72676;SDS011;60755;51.374;10.662;2023-07-08T13:59:38;4.97;;;4.05;;
72676;SDS011;60755;51.374;10.662;2023-07-08T14:02:13;5.00;;;4.55;;
72676;SDS011;60755;51.374;10.662;2023-07-08T14:04:42;5.53;;;3.90;;
72676;SDS011;60755;51.374;10.662;2023-07-08T14:07:13;4.40;;;4.05;;
72676;SDS011;60755;51.374;10.662;2023-07-08T14:09:43;4.35;;;3.97;;
72676;SDS011;60755;51.374;10.662;2023-07-08T14:12:10;4.50;;;4.13;;
72676;SDS011;60755;51.374;10.662;2023-07-08T14:14:39;4.20;;;3.90;;
72676;SDS011;60755;51.374;10.662;2023-07-08T14:17:07;5.88;;;3.80;;
72676;SDS011;60755;51.374;10.662;2023-07-08T14:19:37;4.82;;;3.88;;
72676;SDS011;60755;51.374;10.662;2023-07-08T14:22:13;4.18;;;3.80;;
72676;SDS011;60755;51.374;10.662;2023-07-08T14:24:48;4.22;;;3.97;;
72676;SDS011;60755;51.374;10.662;2023-07-08T14:27:16;4.20;;;3.90;;
72676;SDS011;60755;51.374;10.662;2023-07-08T14:29:45;4.47;;;4.18;;
72676;SDS011;60755;51.374;10.662;2023-07-08T14:32:16;4.55;;;4.25;;
72676;SDS011;60755;51.374;10.662;2023-07-08T14:34:48;4.47;;;4.15;;
72676;SDS011;60755;51.374;10.662;2023-07-08T14:37:19;5.05;;;4.57;;
72676;SDS011;60755;51.374;10.662;2023-07-08T14:39:47;4.50;;;4.10;;
72676;SDS011;60755;51.374;10.662;2023-07-08T14:42:15;5.85;;;3.92;;
72676;SDS011;60755;51.374;10.662;2023-07-08T14:44:45;5.28;;;4.47;;
72676;SDS011;60755;51.374;10.662;2023-07-08T14:47:15;4.85;;;4.45;;
72676;SDS011;60755;51.374;10.662;2023-07-08T14:49:44;4.00;;;3.80;;
72676;SDS011;60755;51.374;10.662;2023-07-08T14:52:11;4.32;;;3.92;;